createdAt,value
2023-02-11T00:00:12.985Z,100022.84
2023-02-11T00:02:48.016Z,100022.84
2023-02-11T00:05:15.910Z,99994.38
2023-02-11T00:07:45.909Z,100017.03
2023-02-11T00:10:13.776Z,100017.03
2023-02-11T00:12:43.093Z,100008.13
2023-02-11T00:15:13.272Z,100006.56
2023-02-11T00:17:42.956Z,100007.53
2023-02-11T00:20:12.305Z,100005.75
2023-02-11T00:22:42.464Z,99999.66
2023-02-11T00:25:12.082Z,100005.78
2023-02-11T00:27:39.923Z,100006.75
2023-02-11T00:30:11.508Z,99996.59
2023-02-11T00:32:41.246Z,100009.22
2023-02-11T00:35:09.404Z,100017.41
2023-02-11T00:37:40.716Z,100016.88
2023-02-11T00:40:11.072Z,100009.47
2023-02-11T00:42:41.102Z,100001.94
2023-02-11T00:45:10.008Z,99997.84
2023-02-11T00:47:39.815Z,99992.72
2023-02-11T00:50:10.191Z,99985.41
2023-02-11T00:52:44.524Z,99994.09
2023-02-11T00:55:12.360Z,99981.53
2023-02-11T00:57:42.440Z,99982.50
2023-02-11T01:00:14.702Z,99995.91
2023-02-11T01:02:45.120Z,99957.19
2023-02-11T01:05:12.678Z,99983.19
2023-02-11T01:07:43.624Z,99983.44
2023-02-11T01:10:13.649Z,99981.34
2023-02-11T01:12:41.596Z,99983.97
2023-02-11T01:15:12.623Z,99987.56
2023-02-11T01:17:40.375Z,99974.28
2023-02-11T01:20:18.421Z,100000.81
2023-02-11T01:22:47.455Z,99995.00
2023-02-11T01:25:17.680Z,99974.66
2023-02-11T01:27:51.818Z,99949.00
2023-02-11T01:30:19.580Z,99976.59
2023-02-11T01:32:47.298Z,99974.03
2023-02-11T01:35:17.588Z,99971.47
2023-02-11T01:37:45.306Z,99961.81
2023-02-11T01:40:17.174Z,99959.38
2023-02-11T01:42:51.314Z,99963.59
2023-02-11T01:45:52.812Z,99970.13
2023-02-11T01:48:30.738Z,99981.81
2023-02-11T01:51:05.740Z,99968.31
2023-02-11T01:53:57.140Z,99981.22
2023-02-11T01:56:45.568Z,99981.66
2023-02-11T01:59:19.721Z,99981.63
2023-02-11T02:01:53.184Z,99977.50
2023-02-11T02:04:29.351Z,99970.44
2023-02-11T02:07:03.815Z,99976.56
2023-02-11T02:09:41.680Z,99948.25
2023-02-11T02:12:10.792Z,99969.16
2023-02-11T02:14:41.444Z,99979.22
2023-02-11T02:17:17.329Z,99971.97
2023-02-11T02:20:22.049Z,99965.06
2023-02-11T02:23:26.889Z,99975.44
2023-02-11T02:26:36.203Z,99981.19
2023-02-11T02:29:53.665Z,99980.88
2023-02-11T02:32:44.219Z,99989.59
2023-02-11T02:35:25.460Z,99977.94
2023-02-11T02:38:00.312Z,100009.97
2023-02-11T02:40:35.551Z,100011.59
2023-02-11T02:43:06.096Z,100008.94
2023-02-11T02:45:34.516Z,99952.81
2023-02-11T02:48:07.897Z,100022.50
2023-02-11T02:50:38.464Z,100017.38
2023-02-11T02:53:22.348Z,100035.16
2023-02-11T02:56:00.107Z,100034.22
2023-02-11T02:58:54.432Z,100038.50
2023-02-11T03:01:33.241Z,100028.38
2023-02-11T03:04:15.726Z,100028.53
2023-02-11T03:06:53.577Z,100040.25
2023-02-11T03:09:32.836Z,100043.59
2023-02-11T03:12:02.300Z,100045.38
2023-02-11T03:14:38.366Z,100056.47
2023-02-11T03:17:08.915Z,100054.75
2023-02-11T03:19:44.616Z,100064.03
2023-02-11T03:22:18.294Z,100065.84
2023-02-11T03:24:50.426Z,100063.38
2023-02-11T03:27:23.085Z,100026.59
2023-02-11T03:29:59.116Z,100058.50
2023-02-11T03:32:29.882Z,100060.19
2023-02-11T03:35:06.787Z,100061.25
2023-02-11T03:37:39.814Z,100063.94
2023-02-11T03:40:14.728Z,100062.31
2023-02-11T03:42:47.325Z,100067.34
2023-02-11T03:45:22.035Z,100043.94
2023-02-11T03:47:53.189Z,100065.09
2023-02-11T03:50:29.655Z,100082.84
2023-02-11T03:52:58.943Z,100087.09
2023-02-11T03:55:32.797Z,100100.75
2023-02-11T03:58:00.945Z,100111.00
2023-02-11T04:00:36.283Z,100089.56
2023-02-11T04:03:07.798Z,100119.88
2023-02-11T04:05:40.779Z,100128.34
2023-02-11T04:08:08.945Z,100097.38
2023-02-11T04:10:36.851Z,100138.03
2023-02-11T04:13:09.062Z,100147.44
2023-02-11T04:15:36.794Z,100135.44
2023-02-11T04:18:06.824Z,100086.97
2023-02-11T04:20:35.920Z,100144.13
2023-02-11T04:23:03.703Z,100160.38
2023-02-11T04:25:33.717Z,100164.69
2023-02-11T04:28:03.643Z,100164.66
2023-02-11T04:30:31.477Z,100169.91
2023-02-11T04:33:01.425Z,100170.72
2023-02-11T04:35:31.326Z,100177.56
2023-02-11T04:38:00.536Z,100181.84
2023-02-11T04:40:30.543Z,100165.91
2023-02-11T04:43:00.335Z,100207.41
2023-02-11T04:45:28.075Z,100211.72
2023-02-11T04:47:58.014Z,100223.63
2023-02-11T04:50:28.158Z,100214.50
2023-02-11T04:52:55.995Z,100232.41
2023-02-11T04:55:25.129Z,100240.09
2023-02-11T04:57:57.348Z,100241.00
2023-02-11T05:00:25.181Z,100239.41
2023-02-11T05:02:52.929Z,100249.66
2023-02-11T05:05:24.830Z,100256.47
2023-02-11T05:07:52.607Z,100277.88
2023-02-11T05:10:20.439Z,100275.31
2023-02-11T05:12:55.894Z,100290.72
2023-02-11T05:15:23.836Z,100299.16
2023-02-11T05:17:53.811Z,100307.72
2023-02-11T05:20:21.767Z,100323.13
2023-02-11T05:22:49.570Z,100329.84
2023-02-11T05:25:20.415Z,100340.84
2023-02-11T05:27:49.981Z,100340.06
2023-02-11T05:30:19.173Z,100316.50
2023-02-11T05:32:49.069Z,100333.44
2023-02-11T05:35:19.077Z,100361.34
2023-02-11T05:37:48.968Z,100351.19
2023-02-11T05:40:16.949Z,100337.03
2023-02-11T05:42:46.595Z,100374.16
2023-02-11T05:45:14.468Z,100382.66
2023-02-11T05:47:43.531Z,100383.56
2023-02-11T05:50:13.298Z,100404.72
2023-02-11T05:52:43.319Z,100415.81
2023-02-11T05:55:11.718Z,100421.75
2023-02-11T05:57:41.368Z,100415.88
2023-02-11T06:00:12.323Z,100422.69
2023-02-11T06:02:40.089Z,100426.09
2023-02-11T06:05:12.004Z,100434.56
2023-02-11T06:07:42.118Z,100444.81
2023-02-11T06:10:11.136Z,100450.78
2023-02-11T06:12:41.363Z,100461.84
2023-02-11T06:15:11.915Z,100469.47
2023-02-11T06:17:39.715Z,100483.13
2023-02-11T06:20:12.691Z,100486.53
2023-02-11T06:22:42.647Z,100498.38
2023-02-11T06:25:11.153Z,100507.69
2023-02-11T06:27:41.073Z,100503.47
2023-02-11T06:30:12.357Z,100507.72
2023-02-11T06:32:44.323Z,100518.72
2023-02-11T06:35:18.607Z,100528.94
2023-02-11T06:37:46.875Z,100540.78
2023-02-11T06:40:14.756Z,100532.34
2023-02-11T06:42:46.697Z,100539.09
2023-02-11T06:45:14.617Z,100545.84
2023-02-11T06:47:42.973Z,100550.09
2023-02-11T06:50:17.859Z,100552.66
2023-02-11T06:52:45.560Z,100559.44
2023-02-11T06:55:15.876Z,100575.50
2023-02-11T06:57:45.896Z,100583.13
2023-02-11T07:00:15.136Z,100595.81
2023-02-11T07:02:45.426Z,100611.91
2023-02-11T07:05:15.052Z,100617.00
2023-02-11T07:07:44.342Z,100623.78
2023-02-11T07:10:18.369Z,100639.00
2023-02-11T07:12:48.476Z,100652.56
2023-02-11T07:15:16.177Z,100662.72
2023-02-11T07:17:47.949Z,100664.41
2023-02-11T07:20:15.700Z,100654.25
2023-02-11T07:22:44.798Z,100683.88
2023-02-11T07:25:12.681Z,100688.13
2023-02-11T07:27:40.447Z,100689.84
2023-02-11T07:30:09.114Z,100700.84
2023-02-11T07:32:37.065Z,100717.78
2023-02-11T07:35:05.365Z,100730.50
2023-02-11T07:37:35.008Z,100747.41
2023-02-11T07:40:09.890Z,100735.56
2023-02-11T07:42:37.694Z,100740.66
2023-02-11T07:45:08.281Z,100755.91
2023-02-11T07:47:39.010Z,100758.44
2023-02-11T07:50:07.775Z,100776.22
2023-02-11T07:52:37.986Z,100778.75
2023-02-11T07:55:07.662Z,100794.00
2023-02-11T07:57:35.451Z,100803.34
2023-02-11T08:00:07.054Z,100819.44
2023-02-11T08:02:36.745Z,100824.53
2023-02-11T08:05:04.489Z,100828.75
2023-02-11T08:07:34.533Z,100845.72
2023-02-11T08:10:04.176Z,100796.56
2023-02-11T08:12:33.265Z,100855.88
2023-02-11T08:15:03.192Z,100870.28
2023-02-11T08:17:30.965Z,100883.81
2023-02-11T08:19:58.657Z,100894.00
2023-02-11T08:22:28.625Z,100892.28
2023-02-11T08:24:58.372Z,100914.31
2023-02-11T08:27:26.576Z,100898.22
2023-02-11T08:30:01.346Z,100921.94
2023-02-11T08:32:30.314Z,100938.94
2023-02-11T08:35:00.246Z,100943.16
2023-02-11T08:37:32.701Z,100949.94
2023-02-11T08:40:01.015Z,100967.75
2023-02-11T08:42:32.868Z,100988.94
2023-02-11T08:45:03.179Z,101002.44
2023-02-11T08:47:31.470Z,101010.97
2023-02-11T08:50:03.404Z,101028.72
2023-02-11T08:52:31.173Z,101034.69
2023-02-11T08:54:58.900Z,101028.72
2023-02-11T08:57:30.856Z,101060.13
2023-02-11T08:59:58.611Z,101066.91
2023-02-11T09:02:27.986Z,101068.59
2023-02-11T09:04:55.974Z,101080.50
2023-02-11T09:07:23.731Z,101094.88
2023-02-11T09:09:51.432Z,101107.53
2023-02-11T09:12:19.364Z,101088.03
2023-02-11T09:14:47.504Z,101126.22
2023-02-11T09:17:15.327Z,101133.09
2023-02-11T09:19:44.640Z,101123.63
2023-02-11T09:22:12.353Z,101156.00
2023-02-11T09:24:40.176Z,101168.66
2023-02-11T09:27:10.186Z,101187.31
2023-02-11T09:29:37.910Z,101183.06
2023-02-11T09:32:08.631Z,101200.94
2023-02-11T09:34:39.782Z,101208.53
2023-02-11T09:37:08.958Z,101229.72
2023-02-11T09:39:38.286Z,101183.59
2023-02-11T09:42:29.978Z,101195.44
2023-02-11T09:45:00.597Z,101255.78
2023-02-11T09:47:35.914Z,101268.53
2023-02-11T09:50:07.705Z,101267.56
2023-02-11T09:52:47.967Z,101279.47
2023-02-11T09:55:24.091Z,101282.88
2023-02-11T09:57:54.276Z,101292.28
2023-02-11T10:00:25.935Z,101292.25
2023-02-11T10:03:15.058Z,101304.84
2023-02-11T10:06:06.557Z,101305.81
2023-02-11T10:08:48.014Z,101249.50
2023-02-11T10:11:31.681Z,101318.59
2023-02-11T10:14:14.240Z,101324.53
2023-02-11T10:16:53.904Z,101338.88
2023-02-11T10:19:37.659Z,101336.28
2023-02-11T10:22:14.110Z,101349.84
2023-02-11T10:24:52.375Z,101355.69
2023-02-11T10:27:22.404Z,101330.91
2023-02-11T10:29:56.678Z,101356.56
2023-02-11T10:32:32.201Z,101359.31
2023-02-11T10:35:05.324Z,101371.88
2023-02-11T10:37:33.150Z,101375.41
2023-02-11T10:40:02.175Z,101388.09
2023-02-11T10:42:32.767Z,101388.84
2023-02-11T10:45:05.045Z,101369.38
2023-02-11T10:47:40.001Z,101373.78
2023-02-11T10:50:21.598Z,101406.88
2023-02-11T10:52:49.888Z,101427.00
2023-02-11T10:55:25.424Z,101428.66
2023-02-11T10:58:01.513Z,101403.09
2023-02-11T11:00:37.979Z,101440.59
2023-02-11T11:03:10.167Z,101451.53
2023-02-11T11:05:49.385Z,101449.91
2023-02-11T11:08:18.121Z,101462.78
2023-02-11T11:10:48.854Z,101470.47
2023-02-11T11:13:32.974Z,101475.44
2023-02-11T11:16:25.359Z,101494.19
2023-02-11T11:18:56.551Z,101482.94
2023-02-11T11:21:31.476Z,101502.59
2023-02-11T11:24:00.917Z,101515.34
2023-02-11T11:26:41.003Z,101519.56
2023-02-11T11:29:12.898Z,101500.03
2023-02-11T11:31:48.697Z,101524.66
2023-02-11T11:34:30.278Z,101546.25
2023-02-11T11:37:00.562Z,101553.72
2023-02-11T11:39:30.884Z,101532.22
2023-02-11T11:42:07.220Z,101559.66
2023-02-11T11:44:36.666Z,101516.13
2023-02-11T11:47:26.327Z,101574.97
2023-02-11T11:50:20.176Z,101581.94
2023-02-11T11:52:56.114Z,101596.34
2023-02-11T11:55:28.043Z,101607.47
2023-02-11T11:57:57.287Z,101613.25
2023-02-11T12:00:32.418Z,101614.88
2023-02-11T12:03:39.225Z,101636.03
2023-02-11T12:06:21.847Z,101607.91
2023-02-11T12:09:01.898Z,101644.31
2023-02-11T12:11:45.967Z,101638.38
2023-02-11T12:14:27.030Z,101666.38
2023-02-11T12:17:03.396Z,101678.50
2023-02-11T12:19:55.074Z,101686.19
2023-02-11T12:22:32.220Z,101672.56
2023-02-11T12:25:37.590Z,101702.53
2023-02-11T12:28:20.377Z,101705.69
2023-02-11T12:31:11.401Z,101710.53
2023-02-11T12:34:05.832Z,101721.41
2023-02-11T12:36:57.148Z,101716.47
2023-02-11T12:39:35.083Z,101714.81
2023-02-11T12:42:48.460Z,101723.41
2023-02-11T12:45:27.577Z,101727.72
2023-02-11T12:48:12.978Z,101731.09
2023-02-11T12:50:55.058Z,101731.25
2023-02-11T12:53:44.924Z,101740.63
2023-02-11T12:56:19.758Z,101744.88
2023-02-11T12:58:51.909Z,101757.91
2023-02-11T13:01:24.696Z,101763.03
2023-02-11T13:03:58.877Z,101775.88
2023-02-11T13:06:30.698Z,101741.88
2023-02-11T13:09:06.626Z,101796.50
2023-02-11T13:11:40.300Z,101784.47
2023-02-11T13:14:19.437Z,101825.00
2023-02-11T13:16:50.749Z,101824.31
2023-02-11T13:19:31.385Z,101831.78
2023-02-11T13:22:05.241Z,101830.75
2023-02-11T13:24:42.648Z,101836.59
2023-02-11T13:27:20.473Z,101836.03
2023-02-11T13:30:28.088Z,101817.97
2023-02-11T13:33:07.798Z,101843.69
2023-02-11T13:35:42.317Z,101810.25
2023-02-11T13:38:22.248Z,101854.69
2023-02-11T13:41:06.385Z,101853.00
2023-02-11T13:43:36.289Z,101865.44
2023-02-11T13:46:11.918Z,101873.63
2023-02-11T13:48:46.634Z,101876.00
2023-02-11T13:51:39.298Z,101837.69
2023-02-11T13:54:11.910Z,101841.19
2023-02-11T13:56:42.848Z,101885.63
2023-02-11T13:59:49.222Z,101895.19
2023-02-11T14:02:45.343Z,101894.81
2023-02-11T14:05:48.828Z,101913.84
2023-02-11T14:08:39.532Z,101919.44
2023-02-11T14:11:12.405Z,101911.38
2023-02-11T14:14:13.648Z,101931.97
2023-02-11T14:17:20.539Z,101937.53
2023-02-11T14:19:51.298Z,101906.66
2023-02-11T14:22:25.922Z,101944.97
2023-02-11T14:24:58.681Z,101959.50
2023-02-11T14:27:45.537Z,101964.56
2023-02-11T14:30:32.149Z,101950.13
2023-02-11T14:33:21.606Z,101990.38
2023-02-11T14:36:05.349Z,101997.38
2023-02-11T14:38:50.333Z,102008.03
2023-02-11T14:41:24.217Z,102003.94
2023-02-11T14:43:56.833Z,102008.09
2023-02-11T14:46:29.526Z,102031.00
2023-02-11T14:49:00.973Z,102032.69
2023-02-11T14:51:33.912Z,102044.81
2023-02-11T14:54:13.386Z,102043.97
2023-02-11T14:56:44.678Z,102059.41
2023-02-11T14:59:19.630Z,102060.53
2023-02-11T15:01:50.826Z,102051.00
2023-02-11T15:04:27.070Z,102061.00
2023-02-11T15:06:56.320Z,102070.06
2023-02-11T15:09:29.516Z,102076.13
2023-02-11T15:11:59.676Z,102084.91
2023-02-11T15:14:30.366Z,102042.44
2023-02-11T15:17:01.434Z,102085.88
2023-02-11T15:19:34.369Z,102096.41
2023-02-11T15:22:08.148Z,102098.72
2023-02-11T15:24:39.345Z,102081.63
2023-02-11T15:27:16.297Z,102110.50
2023-02-11T15:29:45.973Z,102122.19
2023-02-11T15:32:16.970Z,102091.22
2023-02-11T15:34:45.901Z,102142.78
2023-02-11T15:37:17.955Z,102150.28
2023-02-11T15:39:45.823Z,102158.16
2023-02-11T15:42:28.766Z,102141.00
2023-02-11T15:45:25.900Z,102163.78
2023-02-11T15:48:01.635Z,102160.72
2023-02-11T15:50:31.830Z,102155.66
2023-02-11T15:53:04.139Z,102169.13
2023-02-11T15:55:32.317Z,102176.94
2023-02-11T15:58:03.332Z,102159.44
2023-02-11T16:00:38.930Z,102198.00
2023-02-11T16:03:06.936Z,102197.47
2023-02-11T16:05:37.450Z,102185.81
2023-02-11T16:08:16.299Z,102220.31
2023-02-11T16:10:58.346Z,102226.66
2023-02-11T16:13:32.410Z,102230.22
2023-02-11T16:16:04.702Z,102235.75
2023-02-11T16:18:39.088Z,102247.13
2023-02-11T16:21:13.305Z,102195.81
2023-02-11T16:23:43.143Z,102249.53
2023-02-11T16:26:20.783Z,102257.31
2023-02-11T16:28:50.429Z,102260.69
2023-02-11T16:31:20.727Z,102259.88
2023-02-11T16:33:48.338Z,102266.13
2023-02-11T16:36:19.980Z,102263.66
2023-02-11T16:38:53.384Z,102277.03
2023-02-11T16:41:21.115Z,102288.31
2023-02-11T16:43:52.043Z,102268.50
2023-02-11T16:46:19.945Z,102291.47
2023-02-11T16:48:47.815Z,102295.22
2023-02-11T16:51:15.851Z,102307.53
2023-02-11T16:53:45.796Z,102267.00
2023-02-11T16:56:16.934Z,102308.13
2023-02-11T16:58:45.148Z,102269.84
2023-02-11T17:01:17.353Z,102331.28
2023-02-11T17:03:45.863Z,102332.59
2023-02-11T17:06:14.740Z,102328.22
2023-02-11T17:08:42.646Z,102344.09
2023-02-11T17:11:10.584Z,102307.47
2023-02-11T17:13:39.640Z,102334.22
2023-02-11T17:16:17.195Z,102343.13
2023-02-11T17:18:45.100Z,102350.53
2023-02-11T17:21:13.254Z,102363.03
2023-02-11T17:23:41.265Z,102361.09
2023-02-11T17:26:10.187Z,102367.53
2023-02-11T17:28:40.256Z,102377.09
2023-02-11T17:31:11.609Z,102346.63
2023-02-11T17:33:42.953Z,102405.84
2023-02-11T17:36:12.002Z,102409.91
2023-02-11T17:38:39.976Z,102421.75
2023-02-11T17:41:07.945Z,102419.06
2023-02-11T17:43:35.799Z,102423.72
2023-02-11T17:46:09.596Z,102430.56
2023-02-11T17:48:41.548Z,102439.72
2023-02-11T17:51:25.133Z,102398.88
2023-02-11T17:53:53.507Z,102417.88
2023-02-11T17:56:21.675Z,102390.97
2023-02-11T17:58:52.200Z,102438.81
2023-02-11T18:01:20.657Z,102416.75
2023-02-11T18:03:50.028Z,102443.47
2023-02-11T18:06:19.578Z,102445.16
2023-02-11T18:08:47.630Z,102429.47
2023-02-11T18:11:17.796Z,102442.69
2023-02-11T18:13:51.572Z,102438.72
2023-02-11T18:16:19.419Z,102448.78
2023-02-11T18:18:47.523Z,102449.03
2023-02-11T18:21:18.210Z,102454.91
2023-02-11T18:23:46.791Z,102461.38
2023-02-11T18:26:16.350Z,102466.34
2023-02-11T18:28:49.466Z,102479.88
2023-02-11T18:31:20.469Z,102481.50
2023-02-11T18:33:49.210Z,102484.28
2023-02-11T18:36:18.617Z,102487.09
2023-02-11T18:38:46.456Z,102486.16
2023-02-11T18:41:16.970Z,102481.00
2023-02-11T18:43:46.925Z,102430.78
2023-02-11T18:46:16.317Z,102487.13
2023-02-11T18:48:47.058Z,102430.34
2023-02-11T18:51:19.732Z,102477.09
2023-02-11T18:53:49.842Z,102473.63
2023-02-11T18:56:21.975Z,102489.84
2023-02-11T18:58:53.315Z,102490.41
2023-02-11T19:01:27.279Z,102494.38
2023-02-11T19:03:56.543Z,102494.19
2023-02-11T19:06:29.732Z,102486.22
2023-02-11T19:09:01.725Z,102494.16
2023-02-11T19:11:49.717Z,102497.69
2023-02-11T19:14:21.835Z,102506.72
2023-02-11T19:16:54.049Z,102479.69
2023-02-11T19:19:23.311Z,102506.97
2023-02-11T19:21:52.806Z,102514.34
2023-02-11T19:24:21.072Z,102521.41
2023-02-11T19:26:51.992Z,102519.53
2023-02-11T19:29:20.277Z,102517.63
2023-02-11T19:31:48.361Z,102518.41
2023-02-11T19:34:19.558Z,102509.81
2023-02-11T19:36:48.209Z,102502.16
2023-02-11T19:39:18.484Z,102508.66
2023-02-11T19:41:46.316Z,102513.31
2023-02-11T19:44:16.733Z,102516.06
2023-02-11T19:46:44.708Z,102519.50
2023-02-11T19:49:15.408Z,102521.97
2023-02-11T19:51:43.267Z,102514.28
2023-02-11T19:54:11.013Z,102515.44
2023-02-11T19:56:42.081Z,102521.41
2023-02-11T19:59:09.919Z,102532.44
2023-02-11T20:01:38.165Z,102526.75
2023-02-11T20:04:06.225Z,102541.47
2023-02-11T20:06:35.058Z,102548.47
2023-02-11T20:09:06.276Z,102549.44
2023-02-11T20:11:38.153Z,102554.91
2023-02-11T20:14:08.403Z,102515.91
2023-02-11T20:16:47.701Z,102571.00
2023-02-11T20:19:23.164Z,102553.25
2023-02-11T20:21:53.075Z,102562.78
2023-02-11T20:24:23.772Z,102564.53
2023-02-11T20:26:57.104Z,102569.06
2023-02-11T20:29:27.327Z,102539.41
2023-02-11T20:31:55.577Z,102576.13
2023-02-11T20:34:25.173Z,102577.38
2023-02-11T20:36:55.776Z,102590.56
2023-02-11T20:39:27.722Z,102585.16
2023-02-11T20:42:00.537Z,102595.81
2023-02-11T20:44:31.591Z,102600.63
2023-02-11T20:46:59.266Z,102600.81
2023-02-11T20:49:29.465Z,102610.88
2023-02-11T20:51:59.350Z,102615.44
2023-02-11T20:54:27.159Z,102613.47
2023-02-11T20:56:56.907Z,102620.91
2023-02-11T20:59:27.270Z,102613.50
2023-02-11T21:01:57.837Z,102611.50
2023-02-11T21:04:27.746Z,102618.22
2023-02-11T21:06:58.296Z,102619.13
2023-02-11T21:09:28.359Z,102553.94
2023-02-11T21:12:00.905Z,102621.72
2023-02-11T21:14:31.294Z,102597.75
2023-02-11T21:17:00.241Z,102624.31
2023-02-11T21:19:28.062Z,102631.72
2023-02-11T21:22:00.755Z,102641.25
2023-02-11T21:24:28.814Z,102634.56
2023-02-11T21:26:56.536Z,102631.88
2023-02-11T21:29:24.586Z,102629.41
2023-02-11T21:31:52.578Z,102627.44
2023-02-11T21:34:21.730Z,102635.00
2023-02-11T21:36:54.191Z,102586.03
2023-02-11T21:39:21.932Z,102636.44
2023-02-11T21:41:49.732Z,102635.00
2023-02-11T21:44:21.724Z,102625.41
2023-02-11T21:47:22.905Z,102633.53
2023-02-11T21:49:56.140Z,102631.38
2023-02-11T21:52:23.920Z,102627.97
2023-02-11T21:54:51.644Z,102611.88
2023-02-11T21:57:23.480Z,102636.88
2023-02-11T21:59:51.419Z,102644.28
2023-02-11T22:02:19.161Z,102634.63
2023-02-11T22:04:51.434Z,102658.56
2023-02-11T22:07:24.505Z,102655.03
2023-02-11T22:09:55.633Z,102646.19
2023-02-11T22:12:23.551Z,102623.75
2023-02-11T22:14:53.077Z,102661.63
2023-02-11T22:17:21.202Z,102640.16
2023-02-11T22:19:48.979Z,102659.94
2023-02-11T22:22:20.219Z,102640.47
2023-02-11T22:24:51.328Z,102657.25
2023-02-11T22:27:20.321Z,102655.91
2023-02-11T22:29:50.410Z,102651.78
2023-02-11T22:32:20.334Z,102638.25
2023-02-11T22:34:48.035Z,102655.00
2023-02-11T22:37:17.982Z,102657.13
2023-02-11T22:39:49.470Z,102656.34
2023-02-11T22:42:17.279Z,102666.09
2023-02-11T22:44:46.991Z,102650.00
2023-02-11T22:47:16.889Z,102670.28
2023-02-11T22:49:44.687Z,102667.53
2023-02-11T22:52:14.300Z,102676.81
2023-02-11T22:54:44.305Z,102679.59
2023-02-11T22:57:13.333Z,102685.97
2023-02-11T22:59:42.943Z,102683.84
2023-02-11T23:02:11.001Z,102690.94
2023-02-11T23:04:38.812Z,102657.53
2023-02-11T23:07:08.501Z,102672.38
2023-02-11T23:09:38.573Z,102699.06
2023-02-11T23:12:06.670Z,102700.03
2023-02-11T23:14:38.055Z,102696.81
2023-02-11T23:17:08.079Z,102693.19
2023-02-11T23:19:35.794Z,102660.94
2023-02-11T23:22:05.937Z,102691.81
2023-02-11T23:24:35.949Z,102695.72
2023-02-11T23:27:03.917Z,102660.47
2023-02-11T23:29:35.080Z,102695.47
2023-02-11T23:32:06.531Z,102642.41
2023-02-11T23:34:34.303Z,102700.31
2023-02-11T23:37:04.035Z,102680.19
2023-02-11T23:39:40.417Z,102676.97
2023-02-11T23:42:10.036Z,102680.00
2023-02-11T23:44:39.984Z,102676.91
2023-02-11T23:47:14.126Z,102681.91
2023-02-11T23:49:44.089Z,102673.47
2023-02-11T23:52:11.817Z,102678.47
2023-02-11T23:54:47.208Z,102644.56
2023-02-11T23:57:15.011Z,102691.41
2023-02-11T23:59:45.001Z,102691.34
